Time,TemperatureF,DewpointF,PressureIn,WindDirection,WindDirectionDegrees,WindSpeedMPH,WindSpeedGustMPH,Humidity,HourlyPrecipIn,Conditions,Clouds,dailyrainin,SoftwareType,DateUTC
2013-02-09 00:03:00,36.7,30.5,30.19,North,-999,-999.0,-999.0,78,0.00,,,0.00,open2300-1.11,2013-02-09 05:03:00,
2013-02-09 00:08:00,36.7,30.5,30.19,North,-999,-999.0,-999.0,78,0.00,,,0.00,open2300-1.11,2013-02-09 05:08:00,
2013-02-09 00:13:00,36.3,30.4,30.18,North,-999,-999.0,-999.0,79,0.00,,,0.00,open2300-1.11,2013-02-09 05:13:00,
2013-02-09 00:18:00,36.1,30.2,30.19,North,-999,-999.0,-999.0,79,0.00,,,0.00,open2300-1.11,2013-02-09 05:18:00,
2013-02-09 00:23:00,36.0,30.1,30.19,North,-999,-999.0,-999.0,79,0.00,,,0.00,open2300-1.11,2013-02-09 05:23:00,
2013-02-09 00:28:00,35.8,30.2,30.19,North,-999,-999.0,-999.0,80,0.00,,,0.00,open2300-1.11,2013-02-09 05:28:00,
2013-02-09 00:33:00,35.6,30.0,30.19,North,-999,-999.0,-999.0,80,0.00,,,0.00,open2300-1.11,2013-02-09 05:33:00,
2013-02-09 00:38:00,35.4,29.8,30.18,North,-999,-999.0,-999.0,80,0.00,,,0.00,open2300-1.11,2013-02-09 05:38:00,
2013-02-09 00:43:00,35.2,29.7,30.19,North,-999,-999.0,-999.0,80,0.00,,,0.00,open2300-1.11,2013-02-09 05:43:00,
2013-02-09 00:48:00,34.9,29.3,30.19,North,-999,-999.0,-999.0,80,0.00,,,0.00,open2300-1.11,2013-02-09 05:48:00,
2013-02-09 00:53:00,34.9,29.3,30.19,North,-999,-999.0,-999.0,80,0.00,,,0.00,open2300-1.11,2013-02-09 05:53:00,
2013-02-09 00:58:00,34.7,29.4,30.19,North,-999,-999.0,-999.0,81,0.00,,,0.00,open2300-1.11,2013-02-09 05:58:00,
2013-02-09 01:03:00,34.5,29.2,30.19,North,-999,-999.0,-999.0,81,0.00,,,0.00,open2300-1.11,2013-02-09 06:03:00,
2013-02-09 01:08:00,34.5,29.2,30.19,North,-999,-999.0,-999.0,81,0.00,,,0.00,open2300-1.11,2013-02-09 06:08:00,
2013-02-09 01:13:00,34.3,29.3,30.20,North,-999,-999.0,-999.0,82,0.00,,,0.00,open2300-1.11,2013-02-09 06:13:00,
2013-02-09 01:18:00,34.3,29.3,30.21,North,-999,-999.0,-999.0,82,0.00,,,0.00,open2300-1.11,2013-02-09 06:18:00,
2013-02-09 01:23:00,34.3,29.3,30.21,North,-999,-999.0,-999.0,82,0.00,,,0.00,open2300-1.11,2013-02-09 06:23:00,
2013-02-09 01:28:00,34.3,29.3,30.22,North,-999,-999.0,-999.0,82,0.00,,,0.00,open2300-1.11,2013-02-09 06:28:00,
2013-02-09 01:33:00,34.3,29.3,30.22,North,-999,-999.0,-999.0,82,0.00,,,0.00,open2300-1.11,2013-02-09 06:33:00,
2013-02-09 01:38:00,34.3,29.3,30.21,North,-999,-999.0,-999.0,82,0.00,,,0.00,open2300-1.11,2013-02-09 06:38:00,
2013-02-09 01:43:00,34.3,29.3,30.21,North,-999,-999.0,-999.0,82,0.00,,,0.00,open2300-1.11,2013-02-09 06:43:00,
2013-02-09 01:48:00,34.2,29.2,30.21,North,-999,-999.0,-999.0,82,0.00,,,0.00,open2300-1.11,2013-02-09 06:48:00,
2013-02-09 01:53:00,34.0,29.0,30.21,North,-999,-999.0,-999.0,82,0.00,,,0.00,open2300-1.11,2013-02-09 06:53:00,
2013-02-09 01:58:00,34.0,29.0,30.21,North,-999,-999.0,-999.0,82,0.00,,,0.00,open2300-1.11,2013-02-09 06:58:00,
2013-02-09 02:03:00,33.6,28.9,30.22,North,-999,-999.0,-999.0,83,0.00,,,0.00,open2300-1.11,2013-02-09 07:03:00,
2013-02-09 02:08:00,33.6,28.9,30.22,North,-999,-999.0,-999.0,83,0.00,,,0.00,open2300-1.11,2013-02-09 07:08:00,
2013-02-09 02:13:00,33.6,28.9,30.22,North,-999,-999.0,-999.0,83,0.00,,,0.00,open2300-1.11,2013-02-09 07:13:00,
2013-02-09 02:18:00,33.4,28.8,30.22,North,-999,-999.0,-999.0,83,0.00,,,0.00,open2300-1.11,2013-02-09 07:18:00,
2013-02-09 02:23:00,33.4,28.8,30.22,North,-999,-999.0,-999.0,83,0.00,,,0.00,open2300-1.11,2013-02-09 07:23:00,
2013-02-09 02:28:00,33.4,28.8,30.23,North,-999,-999.0,-999.0,83,0.00,,,0.00,open2300-1.11,2013-02-09 07:28:00,
2013-02-09 02:33:00,33.4,29.0,30.22,North,-999,-999.0,-999.0,84,0.00,,,0.00,open2300-1.11,2013-02-09 07:33:00,
2013-02-09 02:38:00,33.3,28.9,30.23,North,-999,-999.0,-999.0,84,0.00,,,0.00,open2300-1.11,2013-02-09 07:38:00,
2013-02-09 02:43:00,33.1,28.7,30.23,North,-999,-999.0,-999.0,84,0.00,,,0.00,open2300-1.11,2013-02-09 07:43:00,
2013-02-09 02:48:00,33.1,28.7,30.23,North,-999,-999.0,-999.0,84,0.00,,,0.00,open2300-1.11,2013-02-09 07:48:00,
2013-02-09 02:53:00,33.1,28.7,30.22,North,-999,-999.0,-999.0,84,0.00,,,0.00,open2300-1.11,2013-02-09 07:53:00,
2013-02-09 02:58:00,32.9,28.6,30.22,North,-999,-999.0,-999.0,84,0.00,,,0.00,open2300-1.11,2013-02-09 07:58:00,
2013-02-09 03:03:00,32.7,28.4,30.22,North,-999,-999.0,-999.0,84,0.00,,,0.00,open2300-1.11,2013-02-09 08:03:00,
2013-02-09 03:08:00,32.7,28.4,30.23,North,-999,-999.0,-999.0,84,0.00,,,0.00,open2300-1.11,2013-02-09 08:08:00,
2013-02-09 03:13:00,32.5,28.2,30.23,North,-999,-999.0,-999.0,84,0.00,,,0.00,open2300-1.11,2013-02-09 08:13:00,
2013-02-09 03:18:00,32.4,28.4,30.23,North,-999,-999.0,-999.0,85,0.00,,,0.00,open2300-1.11,2013-02-09 08:18:00,
2013-02-09 03:23:00,32.4,28.4,30.24,North,-999,-999.0,-999.0,85,0.00,,,0.00,open2300-1.11,2013-02-09 08:23:00,
2013-02-09 03:28:00,32.2,28.2,30.24,North,-999,-999.0,-999.0,85,0.00,,,0.00,open2300-1.11,2013-02-09 08:28:00,
2013-02-09 03:33:00,32.2,28.2,30.24,North,-999,-999.0,-999.0,85,0.00,,,0.00,open2300-1.11,2013-02-09 08:33:00,
2013-02-09 03:38:00,32.2,28.2,30.24,North,-999,-999.0,-999.0,85,0.00,,,0.00,open2300-1.11,2013-02-09 08:38:00,
2013-02-09 03:43:00,32.0,28.3,30.24,North,-999,-999.0,-999.0,86,0.00,,,0.00,open2300-1.11,2013-02-09 08:43:00,
2013-02-09 03:48:00,31.8,28.1,30.24,North,-999,-999.0,-999.0,86,0.00,,,0.00,open2300-1.11,2013-02-09 08:48:00,
2013-02-09 03:53:00,31.8,28.1,30.24,North,-999,-999.0,-999.0,86,0.00,,,0.00,open2300-1.11,2013-02-09 08:53:00,
2013-02-09 03:58:00,31.8,28.1,30.23,North,-999,-999.0,-999.0,86,0.00,,,0.00,open2300-1.11,2013-02-09 08:58:00,
2013-02-09 04:03:00,31.8,28.1,30.24,North,-999,-999.0,-999.0,86,0.00,,,0.00,open2300-1.11,2013-02-09 09:03:00,
2013-02-09 04:08:00,31.8,28.1,30.24,North,-999,-999.0,-999.0,86,0.00,,,0.00,open2300-1.11,2013-02-09 09:08:00,
2013-02-09 04:13:00,31.8,28.1,30.24,North,-999,-999.0,-999.0,86,0.00,,,0.00,open2300-1.11,2013-02-09 09:13:00,
2013-02-09 04:18:00,31.6,28.0,30.24,North,-999,-999.0,-999.0,86,0.00,,,0.00,open2300-1.11,2013-02-09 09:18:00,
2013-02-09 04:23:00,31.6,28.0,30.24,North,-999,-999.0,-999.0,86,0.00,,,0.00,open2300-1.11,2013-02-09 09:23:00,
2013-02-09 04:28:00,31.6,28.0,30.24,North,-999,-999.0,-999.0,86,0.00,,,0.00,open2300-1.11,2013-02-09 09:28:00,
2013-02-09 04:33:00,31.6,28.0,30.24,North,-999,-999.0,-999.0,86,0.00,,,0.00,open2300-1.11,2013-02-09 09:33:00,
2013-02-09 04:38:00,31.6,28.3,30.24,North,-999,-999.0,-999.0,87,0.00,,,0.00,open2300-1.11,2013-02-09 09:38:00,
2013-02-09 04:43:00,31.5,28.1,30.24,North,-999,-999.0,-999.0,87,0.00,,,0.00,open2300-1.11,2013-02-09 09:43:00,
2013-02-09 04:48:00,31.3,27.9,30.25,North,-999,-999.0,-999.0,87,0.00,,,0.00,open2300-1.11,2013-02-09 09:48:00,
2013-02-09 04:53:00,31.3,27.9,30.25,North,-999,-999.0,-999.0,87,0.00,,,0.00,open2300-1.11,2013-02-09 09:53:00,
2013-02-09 04:58:00,31.6,28.3,30.24,North,-999,-999.0,-999.0,87,0.00,,,0.00,open2300-1.11,2013-02-09 09:58:00,
2013-02-09 05:03:00,31.6,28.3,30.25,North,-999,-999.0,-999.0,87,0.00,,,0.00,open2300-1.11,2013-02-09 10:03:00,
2013-02-09 05:08:00,31.6,28.3,30.24,North,-999,-999.0,-999.0,87,0.00,,,0.00,open2300-1.11,2013-02-09 10:08:00,
2013-02-09 05:13:00,31.6,28.3,30.25,North,-999,-999.0,-999.0,87,0.00,,,0.00,open2300-1.11,2013-02-09 10:13:00,
2013-02-09 05:18:00,31.6,28.3,30.25,North,-999,-999.0,-999.0,87,0.00,,,0.00,open2300-1.11,2013-02-09 10:18:00,
2013-02-09 05:23:00,31.6,28.3,30.25,North,-999,-999.0,-999.0,87,0.00,,,0.00,open2300-1.11,2013-02-09 10:23:00,
2013-02-09 05:28:00,31.6,28.3,30.25,North,-999,-999.0,-999.0,87,0.00,,,0.00,open2300-1.11,2013-02-09 10:28:00,
2013-02-09 05:33:00,31.8,28.4,30.25,North,-999,-999.0,-999.0,87,0.00,,,0.00,open2300-1.11,2013-02-09 10:33:00,
2013-02-09 05:38:00,31.6,28.3,30.25,North,-999,-999.0,-999.0,87,0.00,,,0.00,open2300-1.11,2013-02-09 10:38:00,
2013-02-09 05:43:00,31.6,28.3,30.26,North,-999,-999.0,-999.0,87,0.00,,,0.00,open2300-1.11,2013-02-09 10:43:00,
2013-02-09 05:48:00,31.6,28.3,30.26,North,-999,-999.0,-999.0,87,0.00,,,0.00,open2300-1.11,2013-02-09 10:48:00,
2013-02-09 05:53:00,31.6,28.3,30.25,North,-999,-999.0,-999.0,87,0.00,,,0.00,open2300-1.11,2013-02-09 10:53:00,
2013-02-09 05:58:00,31.6,28.3,30.25,North,-999,-999.0,-999.0,87,0.00,,,0.00,open2300-1.11,2013-02-09 10:58:00,
2013-02-09 06:03:00,31.3,27.9,30.25,North,-999,-999.0,-999.0,87,0.00,,,0.00,open2300-1.11,2013-02-09 11:03:00,
2013-02-09 06:08:00,31.3,27.9,30.25,North,-999,-999.0,-999.0,87,0.00,,,0.00,open2300-1.11,2013-02-09 11:08:00,
2013-02-09 06:13:00,31.3,27.9,30.25,North,-999,-999.0,-999.0,87,0.00,,,0.00,open2300-1.11,2013-02-09 11:13:00,
2013-02-09 06:18:00,31.3,27.9,30.25,North,-999,-999.0,-999.0,87,0.00,,,0.00,open2300-1.11,2013-02-09 11:18:00,
2013-02-09 06:23:00,31.3,27.9,30.25,North,-999,-999.0,-999.0,87,0.00,,,0.00,open2300-1.11,2013-02-09 11:23:00,
2013-02-09 06:28:00,31.3,27.9,30.25,North,-999,-999.0,-999.0,87,0.00,,,0.00,open2300-1.11,2013-02-09 11:28:00,
2013-02-09 06:33:00,31.3,27.9,30.25,North,-999,-999.0,-999.0,87,0.00,,,0.00,open2300-1.11,2013-02-09 11:33:00,
2013-02-09 06:38:00,31.1,27.7,30.25,North,-999,-999.0,-999.0,87,0.00,,,0.00,open2300-1.11,2013-02-09 11:38:00,
2013-02-09 06:43:00,31.1,27.7,30.25,North,-999,-999.0,-999.0,87,0.00,,,0.00,open2300-1.11,2013-02-09 11:43:00,
2013-02-09 06:48:00,30.9,27.5,30.26,North,-999,-999.0,-999.0,87,0.00,,,0.00,open2300-1.11,2013-02-09 11:48:00,
2013-02-09 06:53:00,30.9,27.8,30.26,North,-999,-999.0,-999.0,88,0.00,,,0.00,open2300-1.11,2013-02-09 11:53:00,
2013-02-09 06:58:00,30.9,27.8,30.27,North,-999,-999.0,-999.0,88,0.00,,,0.00,open2300-1.11,2013-02-09 11:58:00,
2013-02-09 07:03:00,30.7,27.6,30.26,North,-999,-999.0,-999.0,88,0.00,,,0.00,open2300-1.11,2013-02-09 12:03:00,
2013-02-09 07:08:00,30.7,27.6,30.26,North,-999,-999.0,-999.0,88,0.00,,,0.00,open2300-1.11,2013-02-09 12:08:00,
2013-02-09 07:13:00,30.6,27.5,30.26,North,-999,-999.0,-999.0,88,0.00,,,0.00,open2300-1.11,2013-02-09 12:13:00,
2013-02-09 07:18:00,30.4,27.3,30.27,North,-999,-999.0,-999.0,88,0.00,,,0.00,open2300-1.11,2013-02-09 12:18:00,
2013-02-09 07:28:00,30.0,26.9,30.28,North,-999,-999.0,-999.0,88,0.00,,,0.00,open2300-1.11,2013-02-09 12:28:00,
2013-02-09 07:33:00,30.0,26.9,30.28,North,-999,-999.0,-999.0,88,0.00,,,0.00,open2300-1.11,2013-02-09 12:33:00,
2013-02-09 07:38:00,30.0,26.9,30.28,North,-999,-999.0,-999.0,88,0.00,,,0.00,open2300-1.11,2013-02-09 12:38:00,
2013-02-09 07:43:00,30.0,26.9,30.28,North,-999,-999.0,-999.0,88,0.00,,,0.00,open2300-1.11,2013-02-09 12:43:00,
2013-02-09 07:48:00,30.0,26.9,30.28,North,-999,-999.0,-999.0,88,0.00,,,0.00,open2300-1.11,2013-02-09 12:48:00,
2013-02-09 07:53:00,30.0,26.9,30.29,North,-999,-999.0,-999.0,88,0.00,,,0.00,open2300-1.11,2013-02-09 12:53:00,
2013-02-09 07:58:00,29.8,26.7,30.29,North,-999,-999.0,-999.0,88,0.00,,,0.00,open2300-1.11,2013-02-09 12:58:00,
2013-02-09 08:03:00,30.0,26.9,30.29,North,-999,-999.0,-999.0,88,0.00,,,0.00,open2300-1.11,2013-02-09 13:03:00,
2013-02-09 08:08:00,30.0,26.9,30.29,North,-999,-999.0,-999.0,88,0.00,,,0.00,open2300-1.11,2013-02-09 13:08:00,
2013-02-09 08:13:00,30.0,26.9,30.29,North,-999,-999.0,-999.0,88,0.00,,,0.00,open2300-1.11,2013-02-09 13:13:00,
2013-02-09 08:18:00,30.4,27.3,30.30,North,-999,-999.0,-999.0,88,0.00,,,0.00,open2300-1.11,2013-02-09 13:18:00,
2013-02-09 08:23:00,30.7,27.9,30.30,North,-999,-999.0,-999.0,89,0.00,,,0.00,open2300-1.11,2013-02-09 13:23:00,
2013-02-09 08:28:00,31.1,28.3,30.30,North,-999,-999.0,-999.0,89,0.00,,,0.00,open2300-1.11,2013-02-09 13:28:00,
2013-02-09 08:33:00,31.6,28.8,30.30,North,-999,-999.0,-999.0,89,0.00,,,0.00,open2300-1.11,2013-02-09 13:33:00,
2013-02-09 08:38:00,32.2,29.4,30.29,North,-999,-999.0,-999.0,89,0.00,,,0.00,open2300-1.11,2013-02-09 13:38:00,
2013-02-09 08:43:00,32.5,29.7,30.30,North,-999,-999.0,-999.0,89,0.00,,,0.00,open2300-1.11,2013-02-09 13:43:00,
2013-02-09 08:48:00,33.1,30.2,30.30,North,-999,-999.0,-999.0,89,0.00,,,0.00,open2300-1.11,2013-02-09 13:48:00,
2013-02-09 08:53:00,33.6,30.4,30.30,North,-999,-999.0,-999.0,88,0.00,,,0.00,open2300-1.11,2013-02-09 13:53:00,
2013-02-09 08:58:00,34.0,30.7,30.30,North,-999,-999.0,-999.0,88,0.00,,,0.00,open2300-1.11,2013-02-09 13:58:00,
2013-02-09 09:03:00,34.7,31.1,30.30,North,-999,-999.0,-999.0,87,0.00,,,0.00,open2300-1.11,2013-02-09 14:03:00,
2013-02-09 09:08:00,35.4,31.6,30.31,North,-999,-999.0,-999.0,86,0.00,,,0.00,open2300-1.11,2013-02-09 14:08:00,
2013-02-09 09:13:00,36.0,32.1,30.31,North,-999,-999.0,-999.0,86,0.00,,,0.00,open2300-1.11,2013-02-09 14:13:00,
2013-02-09 09:18:00,36.9,32.7,30.32,North,-999,-999.0,-999.0,85,0.00,,,0.00,open2300-1.11,2013-02-09 14:18:00,
2013-02-09 09:23:00,37.2,32.8,30.31,North,-999,-999.0,-999.0,84,0.00,,,0.00,open2300-1.11,2013-02-09 14:23:00,
2013-02-09 09:28:00,37.9,33.2,30.31,North,-999,-999.0,-999.0,83,0.00,,,0.00,open2300-1.11,2013-02-09 14:28:00,
2013-02-09 09:33:00,38.5,33.5,30.32,North,-999,-999.0,-999.0,82,0.00,,,0.00,open2300-1.11,2013-02-09 14:33:00,
2013-02-09 09:38:00,39.0,33.7,30.32,North,-999,-999.0,-999.0,81,0.00,,,0.00,open2300-1.11,2013-02-09 14:38:00,
2013-02-09 09:43:00,39.6,34.2,30.32,North,-999,-999.0,-999.0,81,0.00,,,0.00,open2300-1.11,2013-02-09 14:43:00,
2013-02-09 09:48:00,40.3,34.2,30.32,North,-999,-999.0,-999.0,79,0.00,,,0.00,open2300-1.11,2013-02-09 14:48:00,
2013-02-09 09:53:00,40.8,34.4,30.32,North,-999,-999.0,-999.0,78,0.00,,,0.00,open2300-1.11,2013-02-09 14:53:00,
2013-02-09 09:58:00,41.5,34.6,30.32,North,-999,-999.0,-999.0,77,0.00,,,0.00,open2300-1.11,2013-02-09 14:58:00,
2013-02-09 10:03:00,41.5,34.2,30.32,North,-999,-999.0,-999.0,75,0.00,,,0.00,open2300-1.11,2013-02-09 15:03:00,
2013-02-09 10:08:00,42.1,34.7,30.32,North,-999,-999.0,-999.0,75,0.00,,,0.00,open2300-1.11,2013-02-09 15:08:00,
2013-02-09 10:13:00,43.2,34.9,30.32,North,-999,-999.0,-999.0,74,0.00,,,0.00,open2300-1.11,2013-02-09 15:13:00,
2013-02-09 10:18:00,43.7,35.3,30.32,North,-999,-999.0,-999.0,72,0.00,,,0.00,open2300-1.11,2013-02-09 15:18:00,
2013-02-09 10:23:00,44.2,35.8,30.32,North,-999,-999.0,-999.0,72,0.00,,,0.00,open2300-1.11,2013-02-09 15:23:00,
2013-02-09 10:28:00,44.8,35.6,30.33,North,-999,-999.0,-999.0,71,0.00,,,0.00,open2300-1.11,2013-02-09 15:28:00,
2013-02-09 10:33:00,45.0,35.8,30.33,North,-999,-999.0,-999.0,70,0.00,,,0.00,open2300-1.11,2013-02-09 15:33:00,
2013-02-09 10:38:00,45.3,35.4,30.34,North,-999,-999.0,-999.0,68,0.00,,,0.00,open2300-1.11,2013-02-09 15:38:00,
2013-02-09 10:43:00,46.8,36.6,30.33,North,-999,-999.0,-999.0,68,0.00,,,0.00,open2300-1.11,2013-02-09 15:43:00,
2013-02-09 10:48:00,47.3,36.9,30.34,North,-999,-999.0,-999.0,67,0.00,,,0.00,open2300-1.11,2013-02-09 15:48:00,
2013-02-09 10:53:00,47.7,36.8,30.34,North,-999,-999.0,-999.0,66,0.00,,,0.00,open2300-1.11,2013-02-09 15:53:00,
2013-02-09 10:58:00,48.7,36.7,30.34,North,-999,-999.0,-999.0,64,0.00,,,0.00,open2300-1.11,2013-02-09 15:58:00,
2013-02-09 11:03:00,49.6,37.5,30.34,North,-999,-999.0,-999.0,63,0.00,,,0.00,open2300-1.11,2013-02-09 16:03:00,
2013-02-09 11:08:00,50.4,37.4,30.33,North,-999,-999.0,-999.0,61,0.00,,,0.00,open2300-1.11,2013-02-09 16:08:00,
2013-02-09 11:13:00,51.1,37.7,30.33,North,-999,-999.0,-999.0,60,0.00,,,0.00,open2300-1.11,2013-02-09 16:13:00,
2013-02-09 11:18:00,51.6,37.2,30.33,North,-999,-999.0,-999.0,58,0.00,,,0.00,open2300-1.11,2013-02-09 16:18:00,
2013-02-09 11:23:00,52.3,37.0,30.33,North,-999,-999.0,-999.0,56,0.00,,,0.00,open2300-1.11,2013-02-09 16:23:00,
2013-02-09 11:28:00,53.2,37.1,30.32,North,-999,-999.0,-999.0,55,0.00,,,0.00,open2300-1.11,2013-02-09 16:28:00,
2013-02-09 11:33:00,53.8,37.9,30.32,North,-999,-999.0,-999.0,55,0.00,,,0.00,open2300-1.11,2013-02-09 16:33:00,
2013-02-09 11:38:00,54.7,37.8,30.32,North,-999,-999.0,-999.0,53,0.00,,,0.00,open2300-1.11,2013-02-09 16:38:00,
2013-02-09 11:43:00,55.0,36.7,30.32,North,-999,-999.0,-999.0,50,0.00,,,0.00,open2300-1.11,2013-02-09 16:43:00,
2013-02-09 11:48:00,55.6,37.7,30.32,North,-999,-999.0,-999.0,51,0.00,,,0.00,open2300-1.11,2013-02-09 16:48:00,
2013-02-09 11:53:00,55.9,38.0,30.32,North,-999,-999.0,-999.0,51,0.00,,,0.00,open2300-1.11,2013-02-09 16:53:00,
2013-02-09 11:58:00,57.0,36.9,30.31,North,-999,-999.0,-999.0,47,0.00,,,0.00,open2300-1.11,2013-02-09 16:58:00,
2013-02-09 12:03:00,57.0,36.9,30.32,North,-999,-999.0,-999.0,47,0.00,,,0.00,open2300-1.11,2013-02-09 17:03:00,
2013-02-09 12:13:00,57.6,37.4,30.31,North,-999,-999.0,-999.0,47,0.00,,,0.00,open2300-1.11,2013-02-09 17:13:00,
2013-02-09 12:18:00,57.9,36.6,30.32,North,-999,-999.0,-999.0,45,0.00,,,0.00,open2300-1.11,2013-02-09 17:18:00,
2013-02-09 12:23:00,57.9,36.6,30.31,North,-999,-999.0,-999.0,45,0.00,,,0.00,open2300-1.11,2013-02-09 17:23:00,
2013-02-09 12:28:00,58.6,37.3,30.31,North,-999,-999.0,-999.0,45,0.00,,,0.00,open2300-1.11,2013-02-09 17:28:00,
2013-02-09 12:33:00,58.8,37.4,30.31,North,-999,-999.0,-999.0,45,0.00,,,0.00,open2300-1.11,2013-02-09 17:33:00,
2013-02-09 12:38:00,59.5,38.1,30.30,North,-999,-999.0,-999.0,45,0.00,,,0.00,open2300-1.11,2013-02-09 17:38:00,
2013-02-09 12:43:00,59.5,36.9,30.30,North,-999,-999.0,-999.0,43,0.00,,,0.00,open2300-1.11,2013-02-09 17:43:00,
2013-02-09 12:48:00,59.7,37.1,30.30,North,-999,-999.0,-999.0,43,0.00,,,0.00,open2300-1.11,2013-02-09 17:48:00,
2013-02-09 12:53:00,60.1,36.8,30.30,North,-999,-999.0,-999.0,42,0.00,,,0.00,open2300-1.11,2013-02-09 17:53:00,
2013-02-09 12:58:00,60.4,37.2,30.30,North,-999,-999.0,-999.0,42,0.00,,,0.00,open2300-1.11,2013-02-09 17:58:00,
2013-02-09 13:03:00,60.4,37.2,30.30,North,-999,-999.0,-999.0,42,0.00,,,0.00,open2300-1.11,2013-02-09 18:03:00,
2013-02-09 13:08:00,60.8,35.6,30.29,North,-999,-999.0,-999.0,39,0.00,,,0.00,open2300-1.11,2013-02-09 18:08:00,
2013-02-09 13:13:00,60.4,35.3,30.29,North,-999,-999.0,-999.0,39,0.00,,,0.00,open2300-1.11,2013-02-09 18:13:00,
2013-02-09 13:18:00,60.6,36.2,30.28,North,-999,-999.0,-999.0,40,0.00,,,0.00,open2300-1.11,2013-02-09 18:18:00,
2013-02-09 13:23:00,61.3,36.8,30.28,North,-999,-999.0,-999.0,40,0.00,,,0.00,open2300-1.11,2013-02-09 18:23:00,
2013-02-09 13:28:00,61.5,37.0,30.28,North,-999,-999.0,-999.0,40,0.00,,,0.00,open2300-1.11,2013-02-09 18:28:00,
2013-02-09 13:33:00,61.7,35.7,30.27,North,-999,-999.0,-999.0,38,0.00,,,0.00,open2300-1.11,2013-02-09 18:33:00,
2013-02-09 13:38:00,61.7,35.0,30.27,North,-999,-999.0,-999.0,37,0.00,,,0.00,open2300-1.11,2013-02-09 18:38:00,
2013-02-09 13:43:00,61.7,35.0,30.26,North,-999,-999.0,-999.0,37,0.00,,,0.00,open2300-1.11,2013-02-09 18:43:00,
2013-02-09 13:48:00,61.5,35.5,30.27,North,-999,-999.0,-999.0,38,0.00,,,0.00,open2300-1.11,2013-02-09 18:48:00,
2013-02-09 13:53:00,62.1,36.0,30.26,North,-999,-999.0,-999.0,38,0.00,,,0.00,open2300-1.11,2013-02-09 18:53:00,
2013-02-09 13:58:00,62.4,35.6,30.26,North,-999,-999.0,-999.0,37,0.00,,,0.00,open2300-1.11,2013-02-09 18:58:00,
2013-02-09 14:08:00,62.4,35.6,30.25,North,-999,-999.0,-999.0,37,0.00,,,0.00,open2300-1.11,2013-02-09 19:08:00,
2013-02-09 14:13:00,62.2,34.0,30.25,North,-999,-999.0,-999.0,35,0.00,,,0.00,open2300-1.11,2013-02-09 19:13:00,
2013-02-09 14:18:00,61.5,33.4,30.25,North,-999,-999.0,-999.0,35,0.00,,,0.00,open2300-1.11,2013-02-09 19:18:00,
2013-02-09 14:23:00,61.3,33.2,30.25,North,-999,-999.0,-999.0,35,0.00,,,0.00,open2300-1.11,2013-02-09 19:23:00,
2013-02-09 14:28:00,61.0,32.2,30.25,North,-999,-999.0,-999.0,34,0.00,,,0.00,open2300-1.11,2013-02-09 19:28:00,
2013-02-09 14:33:00,60.8,33.4,30.25,North,-999,-999.0,-999.0,36,0.00,,,0.00,open2300-1.11,2013-02-09 19:33:00,
2013-02-09 14:43:00,60.4,31.7,30.25,North,-999,-999.0,-999.0,34,0.00,,,0.00,open2300-1.11,2013-02-09 19:43:00,
2013-02-09 14:48:00,60.1,31.4,30.24,North,-999,-999.0,-999.0,34,0.00,,,0.00,open2300-1.11,2013-02-09 19:48:00,
2013-02-09 14:53:00,59.9,32.0,30.24,North,-999,-999.0,-999.0,35,0.00,,,0.00,open2300-1.11,2013-02-09 19:53:00,
2013-02-09 14:58:00,59.9,32.0,30.24,North,-999,-999.0,-999.0,35,0.00,,,0.00,open2300-1.11,2013-02-09 19:58:00,
2013-02-09 15:03:00,59.7,32.5,30.24,North,-999,-999.0,-999.0,36,0.00,,,0.00,open2300-1.11,2013-02-09 20:03:00,
2013-02-09 15:08:00,59.7,31.8,30.24,North,-999,-999.0,-999.0,35,0.00,,,0.00,open2300-1.11,2013-02-09 20:08:00,
2013-02-09 15:13:00,59.5,30.9,30.23,North,-999,-999.0,-999.0,34,0.00,,,0.00,open2300-1.11,2013-02-09 20:13:00,
2013-02-09 15:18:00,59.4,31.5,30.23,North,-999,-999.0,-999.0,35,0.00,,,0.00,open2300-1.11,2013-02-09 20:18:00,
2013-02-09 15:23:00,59.2,31.3,30.23,North,-999,-999.0,-999.0,35,0.00,,,0.00,open2300-1.11,2013-02-09 20:23:00,
2013-02-09 15:28:00,59.2,31.3,30.23,North,-999,-999.0,-999.0,35,0.00,,,0.00,open2300-1.11,2013-02-09 20:28:00,
2013-02-09 15:33:00,59.5,31.6,30.23,North,-999,-999.0,-999.0,35,0.00,,,0.00,open2300-1.11,2013-02-09 20:33:00,
2013-02-09 15:38:00,59.7,31.8,30.23,North,-999,-999.0,-999.0,35,0.00,,,0.00,open2300-1.11,2013-02-09 20:38:00,
2013-02-09 15:43:00,59.9,32.0,30.23,North,-999,-999.0,-999.0,35,0.00,,,0.00,open2300-1.11,2013-02-09 20:43:00,
2013-02-09 15:48:00,60.4,33.1,30.22,North,-999,-999.0,-999.0,36,0.00,,,0.00,open2300-1.11,2013-02-09 20:48:00,
2013-02-09 15:53:00,61.0,33.6,30.23,North,-999,-999.0,-999.0,36,0.00,,,0.00,open2300-1.11,2013-02-09 20:53:00,
2013-02-09 15:58:00,62.2,33.3,30.22,North,-999,-999.0,-999.0,34,0.00,,,0.00,open2300-1.11,2013-02-09 20:58:00,
2013-02-09 16:03:00,63.0,33.9,30.22,North,-999,-999.0,-999.0,34,0.00,,,0.00,open2300-1.11,2013-02-09 21:03:00,
2013-02-09 16:08:00,63.3,33.5,30.22,North,-999,-999.0,-999.0,33,0.00,,,0.00,open2300-1.11,2013-02-09 21:08:00,
2013-02-09 16:13:00,62.4,33.5,30.22,North,-999,-999.0,-999.0,34,0.00,,,0.00,open2300-1.11,2013-02-09 21:13:00,
2013-02-09 16:18:00,62.1,33.8,30.22,North,-999,-999.0,-999.0,35,0.00,,,0.00,open2300-1.11,2013-02-09 21:18:00,
2013-02-09 16:23:00,63.3,35.0,30.22,North,-999,-999.0,-999.0,35,0.00,,,0.00,open2300-1.11,2013-02-09 21:23:00,
2013-02-09 16:28:00,66.4,36.3,30.22,North,-999,-999.0,-999.0,33,0.00,,,0.00,open2300-1.11,2013-02-09 21:28:00,
2013-02-09 16:33:00,67.6,36.6,30.23,North,-999,-999.0,-999.0,32,0.00,,,0.00,open2300-1.11,2013-02-09 21:33:00,
2013-02-09 16:38:00,67.8,36.7,30.23,North,-999,-999.0,-999.0,32,0.00,,,0.00,open2300-1.11,2013-02-09 21:38:00,
2013-02-09 16:43:00,66.7,35.1,30.22,North,-999,-999.0,-999.0,31,0.00,,,0.00,open2300-1.11,2013-02-09 21:43:00,
2013-02-09 16:48:00,65.1,34.5,30.23,North,-999,-999.0,-999.0,32,0.00,,,0.00,open2300-1.11,2013-02-09 21:48:00,
2013-02-09 16:53:00,63.3,33.5,30.23,North,-999,-999.0,-999.0,33,0.00,,,0.00,open2300-1.11,2013-02-09 21:53:00,
2013-02-09 16:58:00,62.2,32.6,30.23,North,-999,-999.0,-999.0,33,0.00,,,0.00,open2300-1.11,2013-02-09 21:58:00,
2013-02-09 17:03:00,61.5,32.7,30.22,North,-999,-999.0,-999.0,34,0.00,,,0.00,open2300-1.11,2013-02-09 22:03:00,
2013-02-09 17:08:00,61.0,32.2,30.23,North,-999,-999.0,-999.0,34,0.00,,,0.00,open2300-1.11,2013-02-09 22:08:00,
2013-02-09 17:13:00,60.4,32.4,30.23,North,-999,-999.0,-999.0,35,0.00,,,0.00,open2300-1.11,2013-02-09 22:13:00,
2013-02-09 17:18:00,60.1,32.8,30.23,North,-999,-999.0,-999.0,36,0.00,,,0.00,open2300-1.11,2013-02-09 22:18:00,
2013-02-09 17:23:00,59.2,33.1,30.23,North,-999,-999.0,-999.0,37,0.00,,,0.00,open2300-1.11,2013-02-09 22:23:00,
2013-02-09 17:28:00,58.8,32.4,30.23,North,-999,-999.0,-999.0,37,0.00,,,0.00,open2300-1.11,2013-02-09 22:28:00,
2013-02-09 17:33:00,58.5,32.8,30.23,North,-999,-999.0,-999.0,38,0.00,,,0.00,open2300-1.11,2013-02-09 22:33:00,
2013-02-09 17:38:00,57.7,32.2,30.23,North,-999,-999.0,-999.0,38,0.00,,,0.00,open2300-1.11,2013-02-09 22:38:00,
2013-02-09 17:43:00,57.4,32.5,30.23,North,-999,-999.0,-999.0,39,0.00,,,0.00,open2300-1.11,2013-02-09 22:43:00,
2013-02-09 17:48:00,57.0,32.9,30.23,North,-999,-999.0,-999.0,40,0.00,,,0.00,open2300-1.11,2013-02-09 22:48:00,
2013-02-09 17:53:00,56.5,33.0,30.23,North,-999,-999.0,-999.0,41,0.00,,,0.00,open2300-1.11,2013-02-09 22:53:00,
2013-02-09 17:58:00,56.1,33.2,30.24,North,-999,-999.0,-999.0,42,0.00,,,0.00,open2300-1.11,2013-02-09 22:58:00,
2013-02-09 18:03:00,55.8,32.9,30.24,North,-999,-999.0,-999.0,42,0.00,,,0.00,open2300-1.11,2013-02-09 23:03:00,
2013-02-09 18:08:00,55.0,33.0,30.24,North,-999,-999.0,-999.0,43,0.00,,,0.00,open2300-1.11,2013-02-09 23:08:00,
2013-02-09 18:13:00,54.5,32.9,30.24,North,-999,-999.0,-999.0,44,0.00,,,0.00,open2300-1.11,2013-02-09 23:13:00,
2013-02-09 18:18:00,53.8,32.8,30.24,North,-999,-999.0,-999.0,45,0.00,,,0.00,open2300-1.11,2013-02-09 23:18:00,
2013-02-09 18:23:00,53.2,33.0,30.25,North,-999,-999.0,-999.0,46,0.00,,,0.00,open2300-1.11,2013-02-09 23:23:00,
2013-02-09 18:28:00,52.5,32.2,30.25,North,-999,-999.0,-999.0,46,0.00,,,0.00,open2300-1.11,2013-02-09 23:28:00,
2013-02-09 18:33:00,52.2,32.5,30.24,North,-999,-999.0,-999.0,47,0.00,,,0.00,open2300-1.11,2013-02-09 23:33:00,
2013-02-09 18:38:00,51.6,32.5,30.24,North,-999,-999.0,-999.0,48,0.00,,,0.00,open2300-1.11,2013-02-09 23:38:00,
2013-02-09 18:43:00,51.1,32.6,30.25,North,-999,-999.0,-999.0,49,0.00,,,0.00,open2300-1.11,2013-02-09 23:43:00,
2013-02-09 18:48:00,50.7,32.3,30.25,North,-999,-999.0,-999.0,49,0.00,,,0.00,open2300-1.11,2013-02-09 23:48:00,
2013-02-09 18:53:00,50.2,32.3,30.25,North,-999,-999.0,-999.0,50,0.00,,,0.00,open2300-1.11,2013-02-09 23:53:00,
2013-02-09 18:58:00,49.8,32.5,30.25,North,-999,-999.0,-999.0,51,0.00,,,0.00,open2300-1.11,2013-02-09 23:58:00,
2013-02-09 19:03:00,49.3,31.9,30.25,North,-999,-999.0,-999.0,51,0.00,,,0.00,open2300-1.11,2013-02-10 00:03:00,
2013-02-09 19:08:00,48.9,32.0,30.25,North,-999,-999.0,-999.0,52,0.00,,,0.00,open2300-1.11,2013-02-10 00:08:00,
2013-02-09 19:13:00,48.7,31.8,30.25,North,-999,-999.0,-999.0,52,0.00,,,0.00,open2300-1.11,2013-02-10 00:13:00,
2013-02-09 19:18:00,48.4,32.0,30.25,North,-999,-999.0,-999.0,53,0.00,,,0.00,open2300-1.11,2013-02-10 00:18:00,
2013-02-09 19:23:00,48.0,32.1,30.25,North,-999,-999.0,-999.0,54,0.00,,,0.00,open2300-1.11,2013-02-10 00:23:00,
2013-02-09 19:28:00,47.8,31.9,30.25,North,-999,-999.0,-999.0,54,0.00,,,0.00,open2300-1.11,2013-02-10 00:28:00,
2013-02-09 19:33:00,47.5,32.0,30.26,North,-999,-999.0,-999.0,55,0.00,,,0.00,open2300-1.11,2013-02-10 00:33:00,
2013-02-09 19:38:00,47.1,31.7,30.26,North,-999,-999.0,-999.0,55,0.00,,,0.00,open2300-1.11,2013-02-10 00:38:00,
2013-02-09 19:43:00,46.9,32.0,30.26,North,-999,-999.0,-999.0,56,0.00,,,0.00,open2300-1.11,2013-02-10 00:43:00,
2013-02-09 19:48:00,46.8,31.8,30.26,North,-999,-999.0,-999.0,56,0.00,,,0.00,open2300-1.11,2013-02-10 00:48:00,
2013-02-09 19:53:00,46.2,31.8,30.25,North,-999,-999.0,-999.0,57,0.00,,,0.00,open2300-1.11,2013-02-10 00:53:00,
2013-02-09 19:58:00,46.2,31.8,30.25,North,-999,-999.0,-999.0,57,0.00,,,0.00,open2300-1.11,2013-02-10 00:58:00,
2013-02-09 20:03:00,46.0,31.6,30.25,North,-999,-999.0,-999.0,57,0.00,,,0.00,open2300-1.11,2013-02-10 01:03:00,
2013-02-09 20:13:00,45.5,31.5,30.25,North,-999,-999.0,-999.0,58,0.00,,,0.00,open2300-1.11,2013-02-10 01:13:00,
2013-02-09 20:18:00,45.3,31.4,30.25,North,-999,-999.0,-999.0,58,0.00,,,0.00,open2300-1.11,2013-02-10 01:18:00,
2013-02-09 20:23:00,45.1,31.7,30.25,North,-999,-999.0,-999.0,59,0.00,,,0.00,open2300-1.11,2013-02-10 01:23:00,
2013-02-09 20:28:00,45.0,31.5,30.25,North,-999,-999.0,-999.0,59,0.00,,,0.00,open2300-1.11,2013-02-10 01:28:00,
2013-02-09 20:33:00,44.8,31.4,30.25,North,-999,-999.0,-999.0,59,0.00,,,0.00,open2300-1.11,2013-02-10 01:33:00,
2013-02-09 20:38:00,44.4,31.5,30.25,North,-999,-999.0,-999.0,60,0.00,,,0.00,open2300-1.11,2013-02-10 01:38:00,
2013-02-09 20:43:00,44.2,31.3,30.26,North,-999,-999.0,-999.0,60,0.00,,,0.00,open2300-1.11,2013-02-10 01:43:00,
2013-02-09 20:48:00,44.1,30.6,30.26,North,-999,-999.0,-999.0,59,0.00,,,0.00,open2300-1.11,2013-02-10 01:48:00,
2013-02-09 20:53:00,43.9,30.9,30.26,North,-999,-999.0,-999.0,60,0.00,,,0.00,open2300-1.11,2013-02-10 01:53:00,
2013-02-09 20:58:00,43.7,30.7,30.26,North,-999,-999.0,-999.0,60,0.00,,,0.00,open2300-1.11,2013-02-10 01:58:00,
2013-02-09 21:03:00,43.5,30.9,30.26,North,-999,-999.0,-999.0,61,0.00,,,0.00,open2300-1.11,2013-02-10 02:03:00,
2013-02-09 21:08:00,43.3,31.1,30.26,North,-999,-999.0,-999.0,62,0.00,,,0.00,open2300-1.11,2013-02-10 02:08:00,
2013-02-09 21:13:00,43.2,31.4,30.26,North,-999,-999.0,-999.0,63,0.00,,,0.00,open2300-1.11,2013-02-10 02:13:00,
2013-02-09 21:18:00,43.0,31.2,30.27,North,-999,-999.0,-999.0,63,0.00,,,0.00,open2300-1.11,2013-02-10 02:18:00,
2013-02-09 21:23:00,43.0,31.2,30.26,North,-999,-999.0,-999.0,63,0.00,,,0.00,open2300-1.11,2013-02-10 02:23:00,
2013-02-09 21:28:00,43.0,31.2,30.26,North,-999,-999.0,-999.0,63,0.00,,,0.00,open2300-1.11,2013-02-10 02:28:00,
2013-02-09 21:33:00,43.0,31.2,30.26,North,-999,-999.0,-999.0,63,0.00,,,0.00,open2300-1.11,2013-02-10 02:33:00,
2013-02-09 21:38:00,42.6,31.2,30.27,North,-999,-999.0,-999.0,64,0.00,,,0.00,open2300-1.11,2013-02-10 02:38:00,
2013-02-09 21:43:00,42.6,31.2,30.26,North,-999,-999.0,-999.0,64,0.00,,,0.00,open2300-1.11,2013-02-10 02:43:00,
2013-02-09 21:48:00,42.4,31.5,30.26,North,-999,-999.0,-999.0,65,0.00,,,0.00,open2300-1.11,2013-02-10 02:48:00,
2013-02-09 21:53:00,42.4,31.5,30.27,North,-999,-999.0,-999.0,65,0.00,,,0.00,open2300-1.11,2013-02-10 02:53:00,
2013-02-09 21:58:00,42.3,31.3,30.27,North,-999,-999.0,-999.0,65,0.00,,,0.00,open2300-1.11,2013-02-10 02:58:00,
2013-02-09 22:08:00,42.1,31.1,30.27,North,-999,-999.0,-999.0,65,0.00,,,0.00,open2300-1.11,2013-02-10 03:08:00,
2013-02-09 22:18:00,41.7,31.2,30.27,North,-999,-999.0,-999.0,66,0.00,,,0.00,open2300-1.11,2013-02-10 03:18:00,
2013-02-09 22:23:00,41.7,31.5,30.27,North,-999,-999.0,-999.0,67,0.00,,,0.00,open2300-1.11,2013-02-10 03:23:00,
2013-02-09 22:28:00,41.7,31.5,30.27,North,-999,-999.0,-999.0,67,0.00,,,0.00,open2300-1.11,2013-02-10 03:28:00,
2013-02-09 22:33:00,41.7,31.5,30.28,North,-999,-999.0,-999.0,67,0.00,,,0.00,open2300-1.11,2013-02-10 03:33:00,
2013-02-09 22:38:00,41.7,32.0,30.27,North,-999,-999.0,-999.0,68,0.00,,,0.00,open2300-1.11,2013-02-10 03:38:00,
2013-02-09 22:43:00,41.7,31.5,30.27,North,-999,-999.0,-999.0,67,0.00,,,0.00,open2300-1.11,2013-02-10 03:43:00,
2013-02-09 22:48:00,41.7,32.0,30.27,North,-999,-999.0,-999.0,68,0.00,,,0.00,open2300-1.11,2013-02-10 03:48:00,
2013-02-09 22:53:00,41.7,32.0,30.27,North,-999,-999.0,-999.0,68,0.00,,,0.00,open2300-1.11,2013-02-10 03:53:00,
2013-02-09 22:58:00,41.9,32.1,30.27,North,-999,-999.0,-999.0,68,0.00,,,0.00,open2300-1.11,2013-02-10 03:58:00,
2013-02-09 23:03:00,41.9,32.1,30.27,North,-999,-999.0,-999.0,68,0.00,,,0.00,open2300-1.11,2013-02-10 04:03:00,
2013-02-09 23:08:00,42.1,32.3,30.27,North,-999,-999.0,-999.0,68,0.00,,,0.00,open2300-1.11,2013-02-10 04:08:00,
2013-02-09 23:13:00,42.1,32.3,30.28,North,-999,-999.0,-999.0,68,0.00,,,0.00,open2300-1.11,2013-02-10 04:13:00,
2013-02-09 23:18:00,42.1,32.3,30.28,North,-999,-999.0,-999.0,68,0.00,,,0.00,open2300-1.11,2013-02-10 04:18:00,
2013-02-09 23:23:00,41.9,32.1,30.28,North,-999,-999.0,-999.0,68,0.00,,,0.00,open2300-1.11,2013-02-10 04:23:00,
2013-02-09 23:28:00,41.9,32.5,30.27,North,-999,-999.0,-999.0,69,0.00,,,0.00,open2300-1.11,2013-02-10 04:28:00,
2013-02-09 23:33:00,42.1,32.7,30.27,North,-999,-999.0,-999.0,69,0.00,,,0.00,open2300-1.11,2013-02-10 04:33:00,
2013-02-09 23:38:00,42.1,32.7,30.27,North,-999,-999.0,-999.0,69,0.00,,,0.00,open2300-1.11,2013-02-10 04:38:00,
2013-02-09 23:43:00,42.1,32.7,30.28,North,-999,-999.0,-999.0,69,0.00,,,0.00,open2300-1.11,2013-02-10 04:43:00,
2013-02-09 23:48:00,42.1,32.7,30.27,North,-999,-999.0,-999.0,69,0.00,,,0.00,open2300-1.11,2013-02-10 04:48:00,
2013-02-09 23:53:00,42.1,32.3,30.26,North,-999,-999.0,-999.0,68,0.00,,,0.00,open2300-1.11,2013-02-10 04:53:00,
2013-02-09 23:58:00,42.1,32.3,30.27,North,-999,-999.0,-999.0,68,0.00,,,0.00,open2300-1.11,2013-02-10 04:58:00,